Time;durP1;ratioP1;P1;durP2;ratioP2;P2;SDS_P1;SDS_P2;PMS_P1;PMS_P2;Temp;Humidity;BMP_temperature;BMP_pressure;BME280_temperature;BME280_humidity;BME280_pressure;Samples;Min_cycle;Max_cycle;Signal;HPM_P1;HPM_P2
2022/05/21 00:02:07;;;;;;;4.77;3.90;;;23.20;50.90;;;;;;21225;6631;301405;-68
2022/05/21 00:04:32;;;;;;;4.70;4.30;;;23.30;50.60;;;;;;21224;6631;303420;-68
2022/05/21 00:06:58;;;;;;;4.43;4.03;;;23.20;50.30;;;;;;21228;6631;301147;-69
2022/05/21 00:09:24;;;;;;;4.10;3.87;;;23.30;49.90;;;;;;21233;6631;303353;-68
2022/05/21 00:11:50;;;;;;;4.13;3.83;;;23.30;49.90;;;;;;21441;6631;69830;-69
2022/05/21 00:14:15;;;;;;;4.20;3.90;;;23.00;50.50;;;;;;21226;6631;291289;-68
2022/05/21 00:16:41;;;;;;;4.20;3.90;;;22.90;50.60;;;;;;21231;6631;287426;-68
2022/05/21 00:19:06;;;;;;;4.20;3.90;;;23.00;50.30;;;;;;21232;6631;329469;-70
2022/05/21 00:21:33;;;;;;;4.20;3.90;;;23.20;49.60;;;;;;21227;6631;271640;-70
2022/05/21 00:23:58;;;;;;;4.20;3.80;;;23.20;49.60;;;;;;21448;6631;66110;-68
2022/05/21 00:26:25;;;;;;;4.32;4.03;;;22.50;51.20;;;;;;21457;6631;67052;-68
2022/05/21 00:28:50;;;;;;;4.43;4.10;;;22.40;51.10;;;;;;21230;6631;274934;-69
2022/05/21 00:31:16;;;;;;;4.80;4.40;;;22.50;51.20;;;;;;21228;6631;272949;-68
2022/05/21 00:33:41;;;;;;;4.23;3.83;;;22.70;51.20;;;;;;21448;6631;66795;-69
2022/05/21 00:36:10;;;;;;;3.87;3.57;;;22.50;51.40;;;;;;21444;6631;70311;-68
2022/05/21 00:38:36;;;;;;;3.90;3.60;;;22.20;51.80;;;;;;21216;6637;271878;-68
2022/05/21 00:41:01;;;;;;;4.40;4.00;;;22.20;51.50;;;;;;21232;6629;300673;-69
2022/05/21 00:43:46;;;;;;;4.00;3.70;;;22.40;50.60;;;;;;21218;6635;273555;-70
2022/05/21 00:46:16;;;;;;;3.60;3.50;;;22.60;50.50;;;;;;21428;6638;67649;-68
2022/05/21 00:48:41;;;;;;;3.93;3.63;;;22.30;50.80;;;;;;21473;6624;69775;-68
2022/05/21 00:51:06;;;;;;;4.00;3.70;;;22.00;51.50;;;;;;21198;6642;322800;-68
2022/05/21 00:53:32;;;;;;;4.30;4.00;;;22.10;51.30;;;;;;21218;6631;301699;-69
2022/05/21 00:55:57;;;;;;;4.43;4.13;;;22.30;50.80;;;;;;21446;6631;65895;-69
2022/05/21 01:01:08;;;;;;;3.40;3.20;;;22.20;50.80;;;;;;21410;6631;69358;-70
2022/05/21 01:03:34;;;;;;;4.60;4.00;;;22.10;51.30;;;;;;21420;6631;68892;-69
2022/05/21 01:06:00;;;;;;;3.97;3.67;;;21.80;51.70;;;;;;21206;6631;272198;-69
2022/05/21 01:08:25;;;;;;;3.80;3.50;;;21.90;51.20;;;;;;21417;6631;65824;-69
2022/05/21 01:10:51;;;;;;;3.83;3.57;;;21.50;51.60;;;;;;21421;6631;67292;-69
2022/05/21 01:13:17;;;;;;;3.70;3.50;;;21.50;51.60;;;;;;21431;6631;65792;-69
2022/05/21 01:15:42;;;;;;;3.20;3.00;;;21.30;51.90;;;;;;21425;6631;67832;-69
2022/05/21 01:18:08;;;;;;;3.97;3.67;;;21.10;52.40;;;;;;21204;6631;303582;-69
2022/05/21 01:20:41;;;;;;;3.45;3.25;;;21.30;51.20;;;;;;21425;6631;72560;-69
2022/05/21 01:23:06;;;;;;;4.10;3.80;;;21.20;51.30;;;;;;21204;6631;329664;-70
2022/05/21 01:25:34;;;;;;;3.40;3.10;;;21.40;50.80;;;;;;21438;6631;72015;-69
2022/05/21 01:27:58;;;;;;;3.58;3.28;;;21.30;51.10;;;;;;21202;6631;295423;-70
2022/05/21 01:30:23;;;;;;;4.00;3.00;;;21.40;50.30;;;;;;21429;6631;68175;-70
2022/05/21 01:32:49;;;;;;;2.60;2.50;;;21.00;51.00;;;;;;21353;6631;87420;-69
2022/05/21 01:35:15;;;;;;;2.63;2.40;;;21.00;51.00;;;;;;21435;6631;65524;-70
2022/05/21 01:37:41;;;;;;;2.90;2.70;;;20.80;51.30;;;;;;21227;6631;322404;-70
2022/05/21 01:40:07;;;;;;;2.70;2.57;;;21.20;49.30;;;;;;21216;6631;277287;-70
2022/05/21 01:42:33;;;;;;;2.23;2.13;;;21.10;49.20;;;;;;21440;6631;65317;-68
2022/05/21 01:44:59;;;;;;;2.60;2.40;;;21.10;49.10;;;;;;21441;6631;67307;-69
2022/05/21 01:47:25;;;;;;;2.58;2.37;;;20.50;50.00;;;;;;21445;6631;66695;-69
2022/05/21 01:49:51;;;;;;;2.43;2.33;;;20.50;50.00;;;;;;21442;6631;66188;-69
2022/05/21 01:52:16;;;;;;;2.23;2.10;;;20.30;50.70;;;;;;21439;6631;67556;-68
2022/05/21 01:54:42;;;;;;;3.08;2.78;;;20.10;50.80;;;;;;21220;6631;300961;-69
2022/05/21 01:57:09;;;;;;;2.58;2.37;;;20.40;48.80;;;;;;21230;6630;303158;-70
2022/05/21 01:59:33;;;;;;;2.50;2.40;;;20.80;48.10;;;;;;21229;6631;272209;-70
2022/05/21 02:01:59;;;;;;;2.55;2.40;;;21.10;47.50;;;;;;21228;6631;298208;-69
2022/05/21 02:04:24;;;;;;;2.50;2.30;;;21.20;46.90;;;;;;21441;6631;66641;-69
2022/05/21 02:06:50;;;;;;;2.22;2.12;;;20.90;47.40;;;;;;21228;6631;300958;-69
2022/05/21 02:09:16;;;;;;;2.40;2.30;;;21.00;47.50;;;;;;21233;6631;289233;-68
2022/05/21 02:11:42;;;;;;;3.30;2.00;;;21.10;46.90;;;;;;21446;6631;67022;-68
2022/05/21 02:14:07;;;;;;;2.35;2.12;;;20.80;47.40;;;;;;21447;6631;67270;-69
2022/05/21 02:16:34;;;;;;;2.03;1.93;;;20.40;48.20;;;;;;21447;6631;68415;-69
2022/05/21 02:19:01;;;;;;;2.87;2.20;;;20.20;48.90;;;;;;21223;6631;301722;-68
2022/05/21 02:21:24;;;;;;;2.20;2.10;;;20.30;48.50;;;;;;21447;6631;69809;-69
2022/05/21 02:23:50;;;;;;;2.70;2.53;;;20.10;49.10;;;;;;21446;6631;89896;-69
2022/05/21 02:26:17;;;;;;;2.20;2.10;;;20.00;49.00;;;;;;21239;6631;285383;-69
2022/05/21 02:28:42;;;;;;;2.23;2.13;;;20.20;48.40;;;;;;21234;6631;272756;-69
2022/05/21 02:31:07;;;;;;;2.63;2.43;;;20.50;47.60;;;;;;21239;6631;271903;-69
2022/05/21 02:33:33;;;;;;;2.63;2.20;;;20.70;47.00;;;;;;21451;6631;66907;-69
2022/05/21 02:35:59;;;;;;;2.50;2.30;;;20.50;47.80;;;;;;21232;6631;272413;-69
2022/05/21 02:41:10;;;;;;;3.10;2.43;;;20.60;47.50;;;;;;21445;6631;65940;-69
2022/05/21 02:43:35;;;;;;;2.80;2.20;;;20.30;48.30;;;;;;21418;6631;69832;-68
2022/05/21 02:46:02;;;;;;;2.50;2.40;;;19.90;49.10;;;;;;21193;6631;294241;-70
2022/05/21 02:48:29;;;;;;;2.72;2.53;;;20.20;48.60;;;;;;21220;6631;330022;-69
2022/05/21 02:50:53;;;;;;;3.30;2.23;;;20.20;48.60;;;;;;21433;6631;73416;-69
2022/05/21 02:53:18;;;;;;;2.40;2.30;;;20.10;49.10;;;;;;21226;6631;274241;-69
2022/05/21 02:55:44;;;;;;;2.10;2.00;;;20.10;48.70;;;;;;21444;6631;66998;-69
2022/05/21 02:58:10;;;;;;;2.10;2.00;;;19.70;49.90;;;;;;21438;6631;69616;-69
2022/05/21 03:00:36;;;;;;;2.50;2.35;;;19.60;49.80;;;;;;21216;6631;330027;-69
2022/05/21 03:03:02;;;;;;;2.57;2.00;;;19.80;49.00;;;;;;21441;6631;66283;-68
2022/05/21 03:05:28;;;;;;;2.10;2.00;;;19.70;49.30;;;;;;21443;6631;66191;-68
2022/05/21 03:07:53;;;;;;;2.53;2.33;;;19.60;49.40;;;;;;21223;6630;271997;-69
2022/05/21 03:10:22;;;;;;;2.40;2.30;;;19.60;49.30;;;;;;21220;6631;300465;-68
2022/05/21 03:12:51;;;;;;;2.20;2.10;;;19.90;48.40;;;;;;21444;6631;66687;-70
2022/05/21 03:15:16;;;;;;;2.40;2.30;;;19.70;48.80;;;;;;21415;6631;66701;-70
2022/05/21 03:17:42;;;;;;;2.90;2.60;;;19.40;49.40;;;;;;21219;6631;329625;-69
2022/05/21 03:20:09;;;;;;;3.35;2.17;;;19.40;49.40;;;;;;21443;6631;66707;-69
2022/05/21 03:22:34;;;;;;;2.80;2.50;;;19.30;49.30;;;;;;21220;6631;300903;-69
2022/05/21 03:25:00;;;;;;;2.20;2.10;;;19.50;49.30;;;;;;21452;6631;67194;-69
2022/05/21 03:27:26;;;;;;;3.03;2.75;;;19.40;49.40;;;;;;21239;6631;272337;-69
2022/05/21 03:29:52;;;;;;;2.63;2.43;;;19.40;49.40;;;;;;21445;6631;67257;-69
2022/05/21 03:32:17;;;;;;;2.50;2.37;;;19.30;49.70;;;;;;21445;6631;66749;-69
2022/05/21 03:34:43;;;;;;;2.80;2.60;;;19.00;50.10;;;;;;21228;6631;271979;-70
2022/05/21 03:37:08;;;;;;;2.90;2.70;;;19.10;49.60;;;;;;21232;6631;272341;-69
2022/05/21 03:39:34;;;;;;;2.95;2.65;;;19.40;48.90;;;;;;21233;6631;272340;-70
2022/05/21 03:42:00;;;;;;;2.93;2.73;;;19.60;48.70;;;;;;21225;6631;316821;-69
2022/05/21 03:44:29;;;;;;;2.60;2.50;;;19.70;48.30;;;;;;21224;6631;303994;-68
2022/05/21 03:46:56;;;;;;;2.40;2.27;;;19.50;49.30;;;;;;21449;6631;66650;-69
2022/05/21 03:49:20;;;;;;;2.33;2.17;;;19.50;49.30;;;;;;21447;6631;73021;-69
2022/05/21 03:51:46;;;;;;;2.70;2.50;;;19.10;50.00;;;;;;21445;6631;66671;-68
2022/05/21 03:54:12;;;;;;;2.80;2.50;;;18.90;50.60;;;;;;21231;6631;330443;-68
2022/05/21 03:56:37;;;;;;;2.30;2.20;;;19.00;49.90;;;;;;21451;6631;66688;-68
2022/05/21 03:59:03;;;;;;;2.37;2.28;;;19.00;50.20;;;;;;21232;6631;311638;-68
2022/05/21 04:01:28;;;;;;;2.45;2.22;;;19.10;49.80;;;;;;21228;6631;302780;-69
2022/05/21 04:03:54;;;;;;;2.78;2.30;;;19.50;49.30;;;;;;21236;6631;272293;-69
2022/05/21 04:06:20;;;;;;;2.67;2.47;;;19.90;48.70;;;;;;21227;6631;277704;-70
2022/05/21 04:08:46;;;;;;;2.47;2.28;;;19.90;48.60;;;;;;21235;6631;300573;-68
2022/05/21 04:11:12;;;;;;;3.43;1.83;;;19.70;48.30;;;;;;21439;6631;68911;-69
2022/05/21 04:27:09;;;;;;;2.30;2.10;;;20.00;46.80;;;;;;21669;6514;66334;-70
2022/05/21 04:29:35;;;;;;;2.30;2.20;;;19.70;47.70;;;;;;21346;6599;271809;-70
2022/05/21 04:32:01;;;;;;;2.80;1.87;;;19.50;48.40;;;;;;21412;6590;68754;-69
2022/05/21 04:34:26;;;;;;;2.17;2.07;;;19.50;48.00;;;;;;21406;6646;68931;-70
2022/05/21 04:36:53;;;;;;;2.40;2.30;;;19.40;48.50;;;;;;21177;6646;300610;-70
2022/05/21 04:39:18;;;;;;;2.43;2.30;;;19.40;48.30;;;;;;21378;6655;66891;-68
2022/05/21 04:41:44;;;;;;;3.60;3.30;;;19.30;48.80;;;;;;21371;6655;67217;-68
2022/05/21 04:44:09;;;;;;;4.50;4.10;;;19.00;49.40;;;;;;21179;6646;300588;-68
2022/05/21 04:46:35;;;;;;;7.40;6.80;;;19.20;48.60;;;;;;21377;6655;66651;-69
2022/05/21 04:49:00;;;;;;;6.67;6.07;;;19.20;49.10;;;;;;21395;6646;91622;-69
2022/05/21 04:51:26;;;;;;;5.27;4.83;;;18.90;49.60;;;;;;21147;6655;301461;-68
2022/05/21 04:53:52;;;;;;;3.67;3.47;;;19.10;49.00;;;;;;21399;6646;66516;-69
2022/05/21 04:56:18;;;;;;;4.07;3.67;;;19.20;49.00;;;;;;21157;6655;274858;-68
2022/05/21 04:58:43;;;;;;;3.50;3.30;;;19.20;49.00;;;;;;21378;6655;67290;-68
2022/05/21 05:01:10;;;;;;;2.90;2.70;;;18.90;49.80;;;;;;21368;6655;66581;-69
2022/05/21 05:03:35;;;;;;;2.67;2.42;;;18.90;49.80;;;;;;21187;6646;329574;-68
2022/05/21 05:06:02;;;;;;;2.37;2.28;;;19.10;48.70;;;;;;21150;6655;301387;-69
2022/05/21 05:08:28;;;;;;;2.20;2.10;;;19.20;48.90;;;;;;21399;6646;70921;-69
2022/05/21 05:10:55;;;;;;;2.13;2.03;;;19.30;49.00;;;;;;21369;6655;66460;-70
2022/05/21 05:13:19;;;;;;;2.50;2.27;;;19.00;49.40;;;;;;21183;6646;284953;-69
2022/05/21 05:15:46;;;;;;;2.37;2.28;;;19.20;48.20;;;;;;21155;6655;313968;-68
2022/05/21 05:18:18;;;;;;;1.70;1.70;;;19.40;48.70;;;;;;21398;6646;66952;-69
2022/05/21 05:20:44;;;;;;;1.90;1.80;;;19.40;47.80;;;;;;21409;6640;67421;-68
2022/05/21 05:23:09;;;;;;;2.83;2.00;;;19.20;48.60;;;;;;21400;6646;67125;-69
2022/05/21 05:25:35;;;;;;;1.97;1.87;;;19.00;49.20;;;;;;21365;6655;66467;-69
2022/05/21 05:28:01;;;;;;;2.50;2.30;;;18.90;49.40;;;;;;21180;6646;283953;-69
2022/05/21 05:30:26;;;;;;;2.30;2.10;;;19.20;47.60;;;;;;21141;6655;302198;-69
2022/05/21 05:32:52;;;;;;;2.30;2.10;;;19.70;46.40;;;;;;21156;6655;272774;-70
2022/05/21 05:35:17;;;;;;;2.27;2.10;;;20.00;45.60;;;;;;21142;6655;309180;-70
2022/05/21 05:37:43;;;;;;;2.00;1.90;;;20.20;44.60;;;;;;21367;6654;68638;-68
2022/05/21 05:40:08;;;;;;;2.20;2.00;;;20.00;45.60;;;;;;21147;6655;276406;-68
2022/05/21 05:42:37;;;;;;;1.87;1.67;;;20.10;45.10;;;;;;21140;6655;301467;-69
2022/05/21 05:45:03;;;;;;;3.40;1.90;;;20.40;44.90;;;;;;21148;6655;304310;-70
2022/05/21 05:47:31;;;;;;;1.73;1.70;;;20.60;44.60;;;;;;21131;6655;303772;-71
2022/05/21 05:49:54;;;;;;;1.70;1.60;;;20.80;43.80;;;;;;21361;6655;67216;-71
2022/05/21 05:52:20;;;;;;;2.20;2.00;;;20.60;44.80;;;;;;21371;6655;65683;-69
2022/05/21 05:54:46;;;;;;;1.60;1.50;;;20.30;45.80;;;;;;21373;6655;67670;-70
2022/05/21 05:57:11;;;;;;;2.43;1.80;;;20.10;46.50;;;;;;21146;6655;301885;-72
2022/05/21 05:59:50;;;;;;;2.30;2.10;;;20.20;44.90;;;;;;21151;6655;274283;-71
2022/05/21 06:05:05;;;;;;;2.03;1.83;;;20.90;43.00;;;;;;21158;6655;275565;-70
2022/05/21 06:07:30;;;;;;;2.00;1.90;;;21.20;43.00;;;;;;21132;6655;306839;-69
2022/05/21 06:10:01;;;;;;;1.67;1.58;;;21.40;42.50;;;;;;21361;6655;66354;-71
2022/05/21 06:12:26;;;;;;;2.00;1.80;;;21.30;42.40;;;;;;21103;6655;301967;-70
2022/05/21 06:14:53;;;;;;;1.87;1.70;;;21.20;43.30;;;;;;21371;6655;66362;-72
2022/05/21 06:17:17;;;;;;;2.17;1.87;;;21.20;43.30;;;;;;21369;6655;66522;-68
2022/05/21 06:19:43;;;;;;;2.47;1.50;;;21.10;43.90;;;;;;21159;6655;276728;-72
2022/05/21 06:22:09;;;;;;;2.10;1.90;;;21.50;43.60;;;;;;21362;6655;66846;-69
2022/05/21 06:24:38;;;;;;;1.70;1.60;;;22.00;44.70;;;;;;21138;6655;303364;-70
2022/05/21 06:27:14;;;;;;;1.53;1.40;;;22.70;40.90;;;;;;21316;6655;66280;-68
2022/05/21 06:29:47;;;;;;;1.60;1.50;;;23.20;42.20;;;;;;21081;6655;332359;-71
2022/05/21 06:32:13;;;;;;;1.40;1.30;;;23.90;39.10;;;;;;21339;6655;65597;-68
2022/05/21 06:34:39;;;;;;;1.20;1.20;;;24.30;40.80;;;;;;21368;6655;67266;-69
2022/05/21 06:37:04;;;;;;;1.97;1.60;;;24.40;41.50;;;;;;21363;6655;66376;-68
2022/05/21 06:39:30;;;;;;;1.40;1.30;;;24.50;41.10;;;;;;21357;6655;68140;-66
2022/05/21 06:41:56;;;;;;;1.40;1.30;;;25.40;37.30;;;;;;21141;6655;276342;-67
2022/05/21 06:44:22;;;;;;;1.40;1.30;;;25.40;37.30;;;;;;21146;6655;274680;-68
2022/05/21 06:46:48;;;;;;;1.50;1.30;;;26.80;35.00;;;;;;21149;6655;272344;-68
2022/05/21 06:49:14;;;;;;;1.30;1.20;;;26.80;35.00;;;;;;21143;6653;301079;-67
2022/05/21 06:51:39;;;;;;;1.77;1.20;;;27.30;34.30;;;;;;21145;6655;304497;-69
2022/05/21 06:54:05;;;;;;;1.30;1.10;;;27.70;32.70;;;;;;21160;6655;276623;-69
2022/05/21 06:56:30;;;;;;;1.03;0.93;;;27.80;31.40;;;;;;21148;6655;271991;-69
2022/05/21 06:58:56;;;;;;;1.23;0.90;;;27.90;31.80;;;;;;21373;6655;65826;-67
2022/05/21 07:01:21;;;;;;;1.03;1.03;;;27.60;32.80;;;;;;21145;6655;275022;-67
2022/05/21 07:03:49;;;;;;;1.50;1.40;;;27.60;32.40;;;;;;21146;6655;302730;-70
2022/05/21 07:09:00;;;;;;;1.00;1.00;;;27.40;33.00;;;;;;21154;6655;295118;-69
2022/05/21 07:11:26;;;;;;;1.77;0.90;;;27.00;32.20;;;;;;21368;6655;65277;-69
2022/05/21 07:13:52;;;;;;;1.33;0.90;;;26.90;31.00;;;;;;21151;6655;302520;-69
2022/05/21 07:16:18;;;;;;;2.33;1.00;;;26.90;31.00;;;;;;21359;6655;71058;-69
2022/05/21 07:18:44;;;;;;;1.63;0.70;;;26.40;33.40;;;;;;21372;6655;66345;-69
2022/05/21 07:21:10;;;;;;;0.80;0.80;;;26.30;33.30;;;;;;21344;6655;65285;-68
2022/05/21 07:23:35;;;;;;;1.08;1.00;;;26.20;33.50;;;;;;21137;6655;334900;-69
2022/05/21 07:26:01;;;;;;;1.90;1.20;;;26.20;33.10;;;;;;21367;6655;66089;-70
2022/05/21 07:28:26;;;;;;;0.90;0.90;;;26.10;32.70;;;;;;21367;6655;65609;-68
2022/05/21 07:30:52;;;;;;;1.33;0.93;;;25.80;33.20;;;;;;21160;6655;271451;-69
2022/05/21 07:33:17;;;;;;;0.73;0.73;;;25.90;31.80;;;;;;21368;6655;65497;-68
2022/05/21 07:35:43;;;;;;;0.80;0.80;;;26.00;32.30;;;;;;21356;6655;65706;-67
2022/05/21 07:38:08;;;;;;;1.90;1.00;;;25.80;32.70;;;;;;21354;6655;87362;-69
2022/05/21 07:40:34;;;;;;;0.90;0.60;;;25.70;33.80;;;;;;21360;6655;70347;-69
2022/05/21 07:42:59;;;;;;;1.00;0.90;;;25.60;33.30;;;;;;21373;6655;65320;-70
2022/05/21 07:45:25;;;;;;;1.00;1.00;;;25.60;33.80;;;;;;21101;6655;300401;-69
2022/05/21 07:47:51;;;;;;;0.80;0.80;;;25.90;33.20;;;;;;21357;6655;67935;-70
2022/05/21 07:50:16;;;;;;;2.40;1.00;;;26.10;33.50;;;;;;21355;6655;65298;-69
2022/05/21 07:52:42;;;;;;;1.20;1.10;;;26.10;33.70;;;;;;21359;6655;66305;-70
2022/05/21 07:55:08;;;;;;;0.90;0.90;;;25.90;33.80;;;;;;21346;6655;68145;-69
2022/05/21 07:57:33;;;;;;;0.93;0.93;;;25.80;34.10;;;;;;21350;6655;65890;-71
2022/05/21 07:59:59;;;;;;;1.95;0.80;;;25.70;33.70;;;;;;21349;6653;65339;-70
2022/05/21 08:02:24;;;;;;;0.80;0.80;;;25.60;33.90;;;;;;21361;6655;65811;-70
2022/05/21 08:04:50;;;;;;;1.00;0.90;;;25.60;34.30;;;;;;21366;6655;65818;-70
2022/05/21 08:07:16;;;;;;;1.30;1.10;;;25.60;34.50;;;;;;21159;6655;273415;-69
2022/05/21 08:09:41;;;;;;;1.58;1.10;;;25.90;33.90;;;;;;21150;6655;330463;-69
2022/05/21 08:12:14;;;;;;;0.83;0.83;;;26.40;31.80;;;;;;21155;6655;275172;-72
2022/05/21 08:14:35;;;;;;;2.60;1.00;;;26.70;31.30;;;;;;21144;6655;303863;-72
2022/05/21 08:17:01;;;;;;;1.03;0.90;;;26.90;31.60;;;;;;21369;6655;66464;-70
2022/05/21 08:19:27;;;;;;;1.93;1.07;;;26.50;31.60;;;;;;21358;6655;72939;-74
2022/05/21 08:21:53;;;;;;;0.87;0.70;;;26.50;31.60;;;;;;21355;6655;66358;-71
2022/05/21 08:27:04;;;;;;;0.70;0.70;;;26.50;31.20;;;;;;21367;6655;66592;-72
2022/05/21 08:29:29;;;;;;;0.70;0.70;;;26.60;32.30;;;;;;21369;6655;67604;-72
2022/05/21 08:31:56;;;;;;;0.50;0.50;;;26.50;32.70;;;;;;21359;6655;65387;-72
2022/05/21 08:34:21;;;;;;;0.80;0.70;;;26.40;32.40;;;;;;21129;6655;277718;-72
2022/05/21 08:36:47;;;;;;;1.13;1.00;;;26.70;31.50;;;;;;21138;6655;274889;-70
2022/05/21 08:39:13;;;;;;;1.47;0.77;;;27.20;29.40;;;;;;21146;6655;271753;-71
2022/05/21 08:41:38;;;;;;;2.53;1.40;;;27.20;29.40;;;;;;21357;6655;65588;-73
2022/05/21 08:44:07;;;;;;;1.37;0.77;;;27.00;30.00;;;;;;21340;6655;66756;-73
2022/05/21 08:46:56;;;;;;;0.70;0.60;;;26.70;30.50;;;;;;21137;6655;333381;-73
2022/05/21 08:49:25;;;;;;;0.60;0.60;;;26.80;32.20;;;;;;21360;6655;66498;-73
2022/05/21 08:51:50;;;;;;;0.87;0.60;;;26.70;32.10;;;;;;21349;6655;67213;-73
2022/05/21 08:54:19;;;;;;;1.37;0.60;;;26.60;31.80;;;;;;21350;6655;66836;-73
2022/05/21 08:56:45;;;;;;;0.60;0.60;;;26.50;31.70;;;;;;21346;6655;66833;-73
2022/05/21 08:59:11;;;;;;;1.08;0.60;;;26.40;31.30;;;;;;21133;6655;331838;-72
2022/05/21 09:01:36;;;;;;;1.35;0.68;;;26.80;30.00;;;;;;21144;6655;275260;-73
2022/05/21 09:04:03;;;;;;;0.95;0.80;;;27.30;30.00;;;;;;21376;6655;66818;-73
2022/05/21 09:06:44;;;;;;;1.20;0.90;;;27.30;30.00;;;;;;21378;6655;65767;-73
2022/05/21 09:09:10;;;;;;;0.80;0.80;;;27.30;30.40;;;;;;21360;6655;66758;-73
2022/05/21 09:11:45;;;;;;;0.80;0.80;;;27.20;30.50;;;;;;21330;6654;66117;-73
2022/05/21 09:14:10;;;;;;;0.70;0.70;;;27.10;31.10;;;;;;21156;6655;303222;-74
2022/05/21 09:16:56;;;;;;;1.27;0.80;;;27.50;30.10;;;;;;21356;6655;66756;-73
2022/05/21 09:19:24;;;;;;;1.90;0.63;;;27.60;29.90;;;;;;21375;6655;65371;-71
2022/05/21 09:21:50;;;;;;;0.67;0.67;;;27.30;29.70;;;;;;21132;6655;299333;-73
2022/05/21 09:24:35;;;;;;;2.10;0.77;;;27.50;29.20;;;;;;21132;6655;324751;-70
2022/05/21 09:27:01;;;;;;;1.23;0.70;;;27.80;28.90;;;;;;21369;6655;65873;-70
2022/05/21 09:29:26;;;;;;;1.10;0.63;;;27.80;29.20;;;;;;21148;6655;295838;-71
2022/05/21 09:31:54;;;;;;;0.50;0.50;;;27.90;29.30;;;;;;21357;6655;65758;-69
2022/05/21 09:34:28;;;;;;;1.85;0.52;;;28.20;28.70;;;;;;21152;6655;303285;-68
2022/05/21 09:36:54;;;;;;;0.50;0.50;;;28.20;28.70;;;;;;21368;6655;72022;-71
2022/05/21 09:39:40;;;;;;;1.10;0.73;;;28.20;28.90;;;;;;21151;6655;300981;-70
2022/05/21 09:42:05;;;;;;;0.50;0.50;;;28.50;28.20;;;;;;21366;6655;65297;-69
2022/05/21 09:47:23;;;;;;;1.00;0.60;;;28.20;29.10;;;;;;21149;6655;303598;-71
2022/05/21 09:50:03;;;;;;;0.60;0.60;;;28.50;28.60;;;;;;21357;6655;65296;-70
2022/05/21 09:52:28;;;;;;;2.13;0.70;;;28.30;28.90;;;;;;21366;6655;66275;-70
2022/05/21 09:54:54;;;;;;;1.57;0.80;;;28.30;28.70;;;;;;21156;6655;275317;-69
2022/05/21 09:57:42;;;;;;;0.90;0.70;;;28.40;28.40;;;;;;21161;6655;330341;-70
2022/05/21 10:00:32;;;;;;;0.57;0.57;;;28.60;28.00;;;;;;21359;6655;65368;-70
2022/05/21 10:02:57;;;;;;;1.10;0.83;;;28.50;28.40;;;;;;21370;6655;66287;-70
2022/05/21 10:05:43;;;;;;;1.35;0.57;;;28.30;28.40;;;;;;21146;6655;331951;-69
2022/05/21 10:11:00;;;;;;;0.67;0.67;;;28.20;28.20;;;;;;21163;6655;300921;-70
2022/05/21 10:13:29;;;;;;;0.70;0.70;;;28.20;27.90;;;;;;21153;6655;311677;-74
2022/05/21 10:16:15;;;;;;;0.50;0.50;;;28.20;27.90;;;;;;21362;6655;65823;-73
2022/05/21 10:18:40;;;;;;;0.80;0.80;;;28.10;28.30;;;;;;21361;6655;71095;-71
2022/05/21 10:21:16;;;;;;;0.70;0.70;;;27.90;28.50;;;;;;21357;6655;66840;-69
2022/05/21 10:23:48;;;;;;;0.50;0.50;;;27.90;28.50;;;;;;21126;6653;304062;-72
2022/05/21 10:26:36;;;;;;;0.67;0.67;;;28.00;27.90;;;;;;21359;6655;70661;-70
2022/05/21 10:29:22;;;;;;;0.97;0.60;;;28.10;28.10;;;;;;21159;6655;272412;-70
2022/05/21 10:31:57;;;;;;;0.60;0.60;;;28.30;27.70;;;;;;21148;6655;272228;-70
2022/05/21 10:34:42;;;;;;;1.70;0.60;;;28.70;27.40;;;;;;21133;6655;301965;-71
2022/05/21 10:37:38;;;;;;;0.50;0.50;;;29.20;27.40;;;;;;21131;6655;303755;-72
2022/05/21 10:40:13;;;;;;;0.80;0.80;;;29.10;26.80;;;;;;21369;6655;65794;-71
2022/05/21 10:43:02;;;;;;;1.47;0.70;;;29.00;27.20;;;;;;21342;6655;65892;-71
2022/05/21 10:46:00;;;;;;;0.60;0.60;;;28.70;27.10;;;;;;21143;6655;301465;-70
2022/05/21 10:48:39;;;;;;;1.47;0.70;;;28.80;26.10;;;;;;21365;6655;65815;-71
2022/05/21 10:51:19;;;;;;;0.50;0.50;;;28.80;26.20;;;;;;21127;6655;272475;-69
2022/05/21 10:53:54;;;;;;;3.40;0.70;;;28.80;26.20;;;;;;21341;6655;65864;-71
2022/05/21 10:56:41;;;;;;;0.40;0.40;;;28.60;26.80;;;;;;21355;6655;65962;-69
2022/05/21 10:59:08;;;;;;;0.50;0.30;;;28.30;27.20;;;;;;21356;6655;65609;-69
2022/05/21 11:01:47;;;;;;;1.37;0.40;;;28.20;27.60;;;;;;21137;6655;289507;-70
2022/05/21 11:04:19;;;;;;;0.70;0.70;;;28.40;27.40;;;;;;21147;6655;272316;-71
2022/05/21 11:07:01;;;;;;;1.23;0.47;;;28.80;27.10;;;;;;21338;6655;66404;-70
2022/05/21 11:09:30;;;;;;;0.60;0.60;;;28.80;27.10;;;;;;21364;6655;70547;-71
2022/05/21 11:12:09;;;;;;;0.50;0.50;;;28.60;27.40;;;;;;21128;6655;288495;-76
2022/05/21 11:15:04;;;;;;;1.13;0.50;;;28.70;27.00;;;;;;21352;6655;66023;-68
2022/05/21 11:17:32;;;;;;;1.40;0.60;;;28.70;27.10;;;;;;21110;6655;272555;-70
2022/05/21 11:20:21;;;;;;;1.40;0.50;;;28.90;26.70;;;;;;21136;6655;302025;-70
2022/05/21 11:22:50;;;;;;;0.47;0.47;;;29.10;26.20;;;;;;21359;6655;65693;-70
2022/05/21 11:25:21;;;;;;;0.40;0.40;;;29.00;26.10;;;;;;21130;6655;301952;-70
2022/05/21 11:27:57;;;;;;;1.50;0.40;;;29.00;26.00;;;;;;21137;6655;271871;-72
2022/05/21 11:30:23;;;;;;;0.60;0.50;;;29.20;26.40;;;;;;21118;6655;284632;-70
2022/05/21 11:38:33;;;;;;;0.53;0.47;;;29.30;27.00;;;;;;21158;6655;302862;-70
2022/05/21 11:47:06;;;;;;;0.53;0.40;;;29.40;25.70;;;;;;21371;6655;65386;-70
2022/05/21 11:49:31;;;;;;;0.50;0.50;;;29.20;26.40;;;;;;21374;6655;65779;-69
2022/05/21 11:52:00;;;;;;;1.03;0.47;;;29.00;27.10;;;;;;21350;6655;66278;-70
2022/05/21 11:54:45;;;;;;;1.60;0.30;;;28.90;27.30;;;;;;21363;6655;65369;-71
2022/05/21 11:57:11;;;;;;;0.60;0.43;;;28.90;26.90;;;;;;21371;6655;72529;-70
2022/05/21 11:59:50;;;;;;;5.50;0.47;;;28.60;26.00;;;;;;21360;6655;65439;-70
2022/05/21 12:02:22;;;;;;;0.60;0.40;;;28.60;26.00;;;;;;21136;6655;304149;-71
2022/05/21 12:04:47;;;;;;;0.40;0.40;;;28.80;25.70;;;;;;21226;6655;65795;-73
2022/05/21 12:07:17;;;;;;;1.07;0.30;;;28.80;26.20;;;;;;21135;6655;271917;-75
2022/05/21 12:09:58;;;;;;;1.03;0.43;;;29.00;25.80;;;;;;21288;6655;65719;-74
2022/05/21 12:12:23;;;;;;;0.90;0.43;;;29.10;26.20;;;;;;21144;6655;302845;-71
2022/05/21 12:14:49;;;;;;;0.75;0.40;;;29.30;25.60;;;;;;21162;6655;331863;-72
2022/05/21 12:17:43;;;;;;;0.50;0.50;;;29.70;24.40;;;;;;21147;6655;271962;-73
2022/05/21 12:20:09;;;;;;;1.17;0.40;;;29.70;24.40;;;;;;21139;6655;302730;-72
2022/05/21 12:22:42;;;;;;;0.40;0.30;;;29.80;25.30;;;;;;21130;6655;330305;-72
2022/05/21 12:25:08;;;;;;;0.40;0.40;;;30.00;25.20;;;;;;21146;6655;301513;-72
2022/05/21 12:27:33;;;;;;;1.00;0.80;;;30.00;24.10;;;;;;21146;6655;272014;-72
2022/05/21 12:30:00;;;;;;;0.40;0.40;;;30.00;24.90;;;;;;21103;6655;272795;-72
2022/05/21 12:32:25;;;;;;;0.60;0.40;;;30.10;23.70;;;;;;21136;6655;322064;-72
2022/05/21 12:35:14;;;;;;;0.53;0.47;;;29.80;24.90;;;;;;21105;6655;123022;-72
2022/05/21 12:37:42;;;;;;;0.60;0.60;;;29.80;24.40;;;;;;20520;6846;308580;-72
2022/05/21 12:40:32;;;;;;;0.40;0.40;;;29.70;23.90;;;;;;20505;6837;307655;-72
2022/05/21 12:43:07;;;;;;;1.20;0.50;;;29.70;23.30;;;;;;20523;6841;307878;-70
2022/05/21 12:45:37;;;;;;;0.37;0.30;;;29.60;25.20;;;;;;20701;6857;118382;-70
2022/05/21 12:48:09;;;;;;;1.37;0.60;;;29.60;25.20;;;;;;20692;6850;118933;-72
2022/05/21 12:50:35;;;;;;;1.33;0.67;;;29.00;26.50;;;;;;20706;6848;119811;-70
2022/05/21 12:53:00;;;;;;;0.47;0.47;;;29.00;26.40;;;;;;20738;6843;117352;-71
2022/05/21 12:55:27;;;;;;;0.50;0.50;;;28.70;27.50;;;;;;20747;6843;117359;-71
2022/05/21 12:57:55;;;;;;;0.50;0.50;;;28.70;26.80;;;;;;20706;6843;119833;-72
2022/05/21 13:00:21;;;;;;;1.10;0.90;;;28.60;27.00;;;;;;20735;6843;118622;-69
2022/05/21 13:02:46;;;;;;;0.60;0.60;;;28.40;26.90;;;;;;20535;6843;304907;-70
2022/05/21 13:05:22;;;;;;;1.25;0.60;;;28.60;27.90;;;;;;20529;6843;339865;-69
2022/05/21 13:07:47;;;;;;;0.50;0.50;;;29.00;27.00;;;;;;20506;6843;290577;-71
2022/05/21 13:10:19;;;;;;;3.00;0.60;;;29.20;27.00;;;;;;20525;6843;309400;-68
2022/05/21 13:12:45;;;;;;;1.90;0.57;;;29.20;26.80;;;;;;20755;6843;119595;-70
2022/05/21 13:15:31;;;;;;;0.77;0.57;;;29.30;26.80;;;;;;20721;6843;117352;-70
2022/05/21 13:18:00;;;;;;;1.87;0.60;;;29.00;26.40;;;;;;20515;6843;277962;-69
2022/05/21 13:20:26;;;;;;;2.70;0.60;;;29.10;26.40;;;;;;20731;6843;117539;-69
2022/05/21 13:23:09;;;;;;;0.53;0.50;;;29.00;26.20;;;;;;20516;6843;309647;-69
2022/05/21 13:25:34;;;;;;;2.17;0.68;;;28.90;26.10;;;;;;20534;6843;336863;-71
2022/05/21 13:28:00;;;;;;;1.35;0.73;;;29.10;26.70;;;;;;20518;6843;307493;-70
2022/05/21 13:30:33;;;;;;;1.23;0.60;;;29.10;26.50;;;;;;20745;6843;117654;-69
2022/05/21 13:32:58;;;;;;;2.57;0.77;;;29.00;26.40;;;;;;20531;6843;318922;-70